createdAt,value
2018-09-08T00:01:34.944Z,54.30
2018-09-08T00:04:03.221Z,54.90
2018-09-08T00:06:33.931Z,55.20
2018-09-08T00:09:02.688Z,55.40
2018-09-08T00:11:30.952Z,55.60
2018-09-08T00:13:59.234Z,55.50
2018-09-08T00:16:32.799Z,54.50
2018-09-08T00:19:06.551Z,54.90
2018-09-08T00:21:40.173Z,53.90
2018-09-08T00:24:13.920Z,53.90
2018-09-08T00:26:41.430Z,54.30
2018-09-08T00:29:19.215Z,54.50
2018-09-08T00:31:47.492Z,53.80
2018-09-08T00:34:15.801Z,53.70
2018-09-08T00:36:44.056Z,54.10
2018-09-08T00:39:12.336Z,55.00
2018-09-08T00:41:40.637Z,54.70
2018-09-08T00:44:08.912Z,55.00
2018-09-08T00:46:37.167Z,54.70
2018-09-08T00:49:05.448Z,53.60
2018-09-08T00:51:33.714Z,53.30
2018-09-08T00:54:01.986Z,53.20
2018-09-08T00:56:30.276Z,53.50
2018-09-08T00:59:02.438Z,53.70
2018-09-08T01:01:31.018Z,54.10
2018-09-08T01:03:59.308Z,53.50
2018-09-08T01:06:27.692Z,53.50
2018-09-08T01:08:55.989Z,53.90
2018-09-08T01:11:24.740Z,54.10
2018-09-08T01:13:53.218Z,54.40
2018-09-08T01:16:21.954Z,54.50
2018-09-08T01:18:50.288Z,54.50
2018-09-08T01:21:18.560Z,53.60
2018-09-08T01:23:51.896Z,53.80
2018-09-08T01:26:20.802Z,54.10
2018-09-08T01:28:49.950Z,54.40
2018-09-08T01:31:18.614Z,54.20
2018-09-08T01:33:46.889Z,54.20
2018-09-08T01:36:15.150Z,53.10
2018-09-08T01:38:43.434Z,52.60
2018-09-08T01:41:11.787Z,52.20
2018-09-08T01:43:40.049Z,51.90
2018-09-08T01:46:08.716Z,51.60
2018-09-08T01:48:37.072Z,51.50
2018-09-08T01:51:05.440Z,51.90
2018-09-08T01:53:33.748Z,52.30
2018-09-08T01:56:02.356Z,52.70
2018-09-08T01:58:30.833Z,53.10
2018-09-08T02:00:59.103Z,53.30
2018-09-08T02:03:27.383Z,53.30
2018-09-08T02:05:55.638Z,53.30
2018-09-08T02:08:23.947Z,53.30
2018-09-08T02:10:52.202Z,52.10
2018-09-08T02:13:20.485Z,51.70
2018-09-08T02:15:48.746Z,51.20
2018-09-08T02:18:17.033Z,50.70
2018-09-08T02:20:45.289Z,50.20
2018-09-08T02:23:13.552Z,49.70
2018-09-08T02:25:41.821Z,49.20
2018-09-08T02:28:10.421Z,48.90
2018-09-08T02:30:38.693Z,48.60
2018-09-08T02:33:07.061Z,48.40
2018-09-08T02:35:35.333Z,48.60
2018-09-08T02:38:03.594Z,48.40
2018-09-08T02:40:31.861Z,48.60
2018-09-08T02:43:00.124Z,49.10
2018-09-08T02:45:28.389Z,49.80
2018-09-08T02:47:56.655Z,49.70
2018-09-08T02:50:36.076Z,49.80
2018-09-08T02:53:03.891Z,50.00
2018-09-08T02:55:31.685Z,50.50
2018-09-08T02:57:59.223Z,50.90
2018-09-08T03:00:27.031Z,51.20
2018-09-08T03:02:54.369Z,51.00
2018-09-08T03:05:21.827Z,50.30
2018-09-08T03:07:49.288Z,50.60
2018-09-08T03:10:16.957Z,50.90
2018-09-08T03:12:44.199Z,51.20
2018-09-08T03:15:11.433Z,51.50
2018-09-08T03:17:38.679Z,51.50
2018-09-08T03:20:05.919Z,50.30
2018-09-08T03:22:33.184Z,50.10
2018-09-08T03:25:00.469Z,49.80
2018-09-08T03:27:27.699Z,49.40
2018-09-08T03:29:54.931Z,49.20
2018-09-08T03:32:22.168Z,49.20
2018-09-08T03:34:49.406Z,49.60
2018-09-08T03:37:16.667Z,50.00
2018-09-08T03:39:43.887Z,50.40
2018-09-08T03:42:11.122Z,51.30
2018-09-08T03:44:38.361Z,50.90
2018-09-08T03:47:05.587Z,49.60
2018-09-08T03:49:32.855Z,49.80
2018-09-08T03:52:00.119Z,50.30
2018-09-08T03:54:27.365Z,50.60
2018-09-08T03:56:54.579Z,51.10
2018-09-08T03:59:21.815Z,51.40
2018-09-08T04:01:49.047Z,50.30
2018-09-08T04:04:17.535Z,49.80
2018-09-08T04:06:45.830Z,49.50
2018-09-08T04:09:15.033Z,49.10
2018-09-08T04:11:48.837Z,49.10
2018-09-08T04:14:17.164Z,49.50
2018-09-08T04:16:45.447Z,50.10
2018-09-08T04:19:13.707Z,49.00
2018-09-08T04:21:41.965Z,49.20
2018-09-08T04:24:10.294Z,49.80
2018-09-08T04:26:38.500Z,50.70
2018-09-08T04:29:06.752Z,51.20
2018-09-08T04:31:35.015Z,51.50
2018-09-08T04:34:03.301Z,50.80
2018-09-08T04:36:31.575Z,49.80
2018-09-08T04:38:59.839Z,50.20
2018-09-08T04:41:28.106Z,51.10
2018-09-08T04:43:56.377Z,51.20
2018-09-08T04:46:24.651Z,51.50
2018-09-08T04:48:52.970Z,51.10
2018-09-08T04:51:21.256Z,49.50
2018-09-08T04:53:49.523Z,48.80
2018-09-08T04:56:17.779Z,48.50
2018-09-08T04:58:46.050Z,48.30
2018-09-08T05:01:14.331Z,48.90
2018-09-08T05:03:42.603Z,49.90
2018-09-08T05:06:10.885Z,49.10
2018-09-08T05:08:39.148Z,48.80
2018-09-08T05:11:07.445Z,49.20
2018-09-08T05:13:35.705Z,50.20
2018-09-08T05:16:03.986Z,50.70
2018-09-08T05:18:32.252Z,51.00
2018-09-08T05:21:00.530Z,50.40
2018-09-08T05:23:28.804Z,48.70
2018-09-08T05:25:57.064Z,48.30
2018-09-08T05:28:25.383Z,48.20
2018-09-08T05:30:53.639Z,48.60
2018-09-08T05:33:21.920Z,49.20
2018-09-08T05:35:50.201Z,50.00
2018-09-08T05:38:18.458Z,48.50
2018-09-08T05:40:46.727Z,48.90
2018-09-08T05:43:15.020Z,49.50
2018-09-08T05:45:43.299Z,50.20
2018-09-08T05:48:11.588Z,50.40
2018-09-08T05:50:39.863Z,50.30
2018-09-08T05:53:08.123Z,50.00
2018-09-08T05:55:36.372Z,49.40
2018-09-08T05:58:04.656Z,49.70
2018-09-08T06:00:32.928Z,50.10
2018-09-08T06:03:01.228Z,50.50
2018-09-08T06:05:29.504Z,50.40
2018-09-08T06:07:57.765Z,50.30
2018-09-08T06:10:26.101Z,49.40
2018-09-08T06:12:54.304Z,49.30
2018-09-08T06:15:22.580Z,49.10
2018-09-08T06:17:50.832Z,48.80
2018-09-08T06:20:19.137Z,48.60
2018-09-08T06:22:47.390Z,48.90
2018-09-08T06:25:15.694Z,49.20
2018-09-08T06:27:43.971Z,49.80
2018-09-08T06:30:12.228Z,50.10
2018-09-08T06:32:40.520Z,50.40
2018-09-08T06:35:08.815Z,50.40
2018-09-08T06:37:37.085Z,50.10
2018-09-08T06:40:05.464Z,50.30
2018-09-08T06:42:33.738Z,50.60
2018-09-08T06:45:02.065Z,50.90
2018-09-08T06:47:30.280Z,51.00
2018-09-08T06:49:58.589Z,51.00
2018-09-08T06:52:26.876Z,51.10
2018-09-08T06:54:55.152Z,51.10
2018-09-08T06:57:23.432Z,51.30
2018-09-08T06:59:51.712Z,51.20
2018-09-08T07:02:19.976Z,51.00
2018-09-08T07:04:48.470Z,51.00
2018-09-08T07:07:16.748Z,51.20
2018-09-08T07:09:45.024Z,51.30
2018-09-08T07:12:13.328Z,51.40
2018-09-08T07:14:41.610Z,51.50
2018-09-08T07:17:09.892Z,51.60
2018-09-08T07:19:38.292Z,51.80
2018-09-08T07:22:06.880Z,52.10
2018-09-08T07:24:35.230Z,52.20
2018-09-08T07:27:03.492Z,52.40
2018-09-08T07:29:31.853Z,52.50
2018-09-08T07:32:00.129Z,52.60
2018-09-08T07:34:28.450Z,52.70
2018-09-08T07:36:56.723Z,52.80
2018-09-08T07:39:25.038Z,53.00
2018-09-08T07:41:53.317Z,53.00
2018-09-08T07:44:21.786Z,53.20
2018-09-08T07:46:50.956Z,53.40
2018-09-08T07:49:19.229Z,53.60
2018-09-08T07:51:47.488Z,53.60
2018-09-08T07:54:15.752Z,53.60
2018-09-08T07:56:44.047Z,53.50
2018-09-08T07:59:12.389Z,53.60
2018-09-08T08:01:40.604Z,53.60
2018-09-08T08:04:08.913Z,53.70
2018-09-08T08:06:37.266Z,53.80
2018-09-08T08:09:07.168Z,53.90
2018-09-08T08:11:35.516Z,54.10
2018-09-08T08:14:03.914Z,54.20
2018-09-08T08:16:32.221Z,54.20
2018-09-08T08:19:00.510Z,54.30
2018-09-08T08:21:28.792Z,54.40
2018-09-08T08:23:58.017Z,54.60
2018-09-08T08:26:26.300Z,54.80
2018-09-08T08:28:54.717Z,54.80
2018-09-08T08:31:22.982Z,54.60
2018-09-08T08:33:51.261Z,54.50
2018-09-08T08:36:19.928Z,54.30
2018-09-08T08:38:48.798Z,54.70
2018-09-08T08:41:17.091Z,53.60
2018-09-08T08:43:45.387Z,53.80
2018-09-08T08:46:13.672Z,53.70
2018-09-08T08:48:42.008Z,54.00
2018-09-08T08:52:21.166Z,53.80
2018-09-08T08:54:53.931Z,53.80
2018-09-08T08:57:22.231Z,54.70
2018-09-08T08:59:50.490Z,55.40
2018-09-08T09:02:18.762Z,55.00
2018-09-08T09:04:47.100Z,55.20
2018-09-08T09:07:16.081Z,54.70
2018-09-08T09:09:44.632Z,54.80
2018-09-08T09:12:12.908Z,54.80
2018-09-08T09:14:41.294Z,54.90
2018-09-08T09:17:09.452Z,54.80
2018-09-08T09:19:49.057Z,54.80
2018-09-08T09:22:29.342Z,54.80
2018-09-08T09:25:00.920Z,54.70
2018-09-08T09:27:30.020Z,54.00
2018-09-08T09:29:58.534Z,53.70
2018-09-08T09:32:26.924Z,53.40
2018-09-08T09:34:55.174Z,54.00
2018-09-08T09:37:23.463Z,53.80
2018-09-08T09:39:52.661Z,53.50
2018-09-08T09:42:22.220Z,53.60
2018-09-08T09:44:50.522Z,54.30
2018-09-08T09:47:18.793Z,53.80
2018-09-08T09:49:47.719Z,53.80
2018-09-08T09:52:16.021Z,53.70
2018-09-08T09:54:44.293Z,52.40
2018-09-08T09:57:12.624Z,52.90
2018-09-08T09:59:40.960Z,53.20
2018-09-08T10:02:40.061Z,53.20
2018-09-08T10:05:26.339Z,52.30
2018-09-08T10:07:55.144Z,54.50
2018-09-08T10:10:25.314Z,53.90
2018-09-08T10:12:54.152Z,54.00
2018-09-08T10:15:22.480Z,53.40
2018-09-08T10:17:50.797Z,51.90
2018-09-08T10:20:20.427Z,50.80
2018-09-08T10:22:48.768Z,52.00
2018-09-08T10:25:18.134Z,53.00
2018-09-08T10:27:46.924Z,52.30
2018-09-08T10:30:15.688Z,52.80
2018-09-08T10:32:44.812Z,53.10
2018-09-08T10:35:13.341Z,52.30
2018-09-08T10:37:41.663Z,52.60
2018-09-08T10:40:10.813Z,52.30
2018-09-08T10:42:39.094Z,52.10
2018-09-08T10:45:07.399Z,53.00
2018-09-08T10:47:35.693Z,52.60
2018-09-08T10:50:04.123Z,50.30
2018-09-08T10:52:36.945Z,50.40
2018-09-08T10:55:05.264Z,51.70
2018-09-08T10:57:33.575Z,52.40
2018-09-08T11:00:02.581Z,53.00
2018-09-08T11:02:31.535Z,52.50
2018-09-08T11:05:00.062Z,52.70
2018-09-08T11:07:28.456Z,52.60
2018-09-08T11:09:56.735Z,51.20
2018-09-08T11:12:25.029Z,52.00
2018-09-08T11:14:53.326Z,52.70
2018-09-08T11:17:21.605Z,52.10
2018-09-08T11:19:49.877Z,52.50
2018-09-08T11:22:18.164Z,52.00
2018-09-08T11:24:46.431Z,52.90
2018-09-08T11:27:14.903Z,52.70
2018-09-08T11:29:43.164Z,53.20
2018-09-08T11:32:11.528Z,53.90
2018-09-08T11:34:39.808Z,54.00
2018-09-08T11:37:08.094Z,53.30
2018-09-08T11:39:36.390Z,52.60
2018-09-08T11:42:04.918Z,53.20
2018-09-08T11:44:33.229Z,52.90
2018-09-08T11:47:02.087Z,53.20
2018-09-08T11:49:30.401Z,53.50
2018-09-08T11:51:58.671Z,52.90
2018-09-08T11:54:26.963Z,52.80
2018-09-08T11:56:55.803Z,52.80
2018-09-08T11:59:24.121Z,53.30
2018-09-08T12:01:52.400Z,53.40
2018-09-08T12:04:20.682Z,53.90
2018-09-08T12:06:48.964Z,53.80
2018-09-08T12:09:17.222Z,53.50
2018-09-08T12:11:45.516Z,53.10
2018-09-08T12:14:13.792Z,52.60
2018-09-08T12:16:42.113Z,51.50
2018-09-08T12:19:10.425Z,51.80
2018-09-08T12:21:38.726Z,54.00
2018-09-08T12:24:07.009Z,54.10
2018-09-08T12:26:35.328Z,54.20
2018-09-08T12:29:03.698Z,52.10
2018-09-08T12:31:31.956Z,51.80
2018-09-08T12:34:00.242Z,49.90
2018-09-08T12:36:31.196Z,51.20
2018-09-08T12:38:59.536Z,52.70
2018-09-08T12:41:27.769Z,52.70
2018-09-08T12:43:56.066Z,50.80
2018-09-08T12:46:24.378Z,51.10
2018-09-08T12:48:52.665Z,51.70
2018-09-08T12:51:21.089Z,53.00
2018-09-08T12:53:49.384Z,53.10
2018-09-08T12:56:17.672Z,51.90
2018-09-08T12:58:45.974Z,50.60
2018-09-08T13:01:14.239Z,50.80
2018-09-08T13:03:42.635Z,50.80
2018-09-08T13:06:10.912Z,50.80
2018-09-08T13:08:39.198Z,51.90
2018-09-08T13:11:07.490Z,52.80
2018-09-08T13:13:35.792Z,52.50
2018-09-08T13:16:04.071Z,53.60
2018-09-08T13:18:32.371Z,52.90
2018-09-08T13:21:00.657Z,52.20
2018-09-08T13:23:29.653Z,53.10
2018-09-08T13:25:57.924Z,52.70
2018-09-08T13:28:26.217Z,52.60
2018-09-08T13:30:54.491Z,52.60
2018-09-08T13:33:22.757Z,53.20
2018-09-08T13:35:51.034Z,51.90
2018-09-08T13:38:19.298Z,53.30
2018-09-08T13:40:47.604Z,53.70
2018-09-08T13:43:15.884Z,52.10
2018-09-08T13:45:45.154Z,51.00
2018-09-08T13:48:13.545Z,50.30
2018-09-08T13:50:41.810Z,50.90
2018-09-08T13:53:10.106Z,52.00
2018-09-08T13:55:38.494Z,52.10
2018-09-08T13:58:06.754Z,52.00
2018-09-08T14:00:35.030Z,53.80
2018-09-08T14:03:03.322Z,52.50
2018-09-08T14:05:31.637Z,52.50
2018-09-08T14:08:03.604Z,51.00
2018-09-08T14:10:31.932Z,50.60
2018-09-08T14:13:00.312Z,53.40
2018-09-08T14:15:28.631Z,52.80
2018-09-08T14:17:56.864Z,52.10
2018-09-08T14:20:25.188Z,53.00
2018-09-08T14:22:53.488Z,52.00
2018-09-08T14:25:21.864Z,53.30
2018-09-08T14:27:50.174Z,54.20
2018-09-08T14:30:19.238Z,53.70
2018-09-08T14:32:47.508Z,54.30
2018-09-08T14:35:16.740Z,52.30
2018-09-08T14:37:45.096Z,51.50
2018-09-08T14:40:13.394Z,52.10
2018-09-08T14:42:41.670Z,49.70
2018-09-08T14:45:09.988Z,52.20
2018-09-08T14:47:38.376Z,53.30
2018-09-08T14:50:06.540Z,53.10
2018-09-08T14:52:34.898Z,52.80
2018-09-08T14:55:03.245Z,52.30
2018-09-08T14:57:31.638Z,51.80
2018-09-08T14:59:59.948Z,51.70
2018-09-08T15:02:28.260Z,52.00
2018-09-08T15:04:56.602Z,50.60
2018-09-08T15:07:24.867Z,50.30
2018-09-08T15:09:53.181Z,51.50
2018-09-08T15:12:21.503Z,50.60
2018-09-08T15:14:49.931Z,50.60
2018-09-08T15:17:18.578Z,52.20
2018-09-08T15:19:46.900Z,52.50
2018-09-08T15:22:15.176Z,50.60
2018-09-08T15:24:43.482Z,51.00
2018-09-08T15:27:11.772Z,52.00
2018-09-08T15:29:40.129Z,51.20
2018-09-08T15:32:08.484Z,50.90
2018-09-08T15:34:36.802Z,53.30
2018-09-08T15:37:05.104Z,50.60
2018-09-08T15:39:34.444Z,52.00
2018-09-08T15:42:03.847Z,51.40
2018-09-08T15:44:32.203Z,51.30
2018-09-08T15:47:00.493Z,51.40
2018-09-08T15:49:28.860Z,52.80
2018-09-08T15:51:57.920Z,53.10
2018-09-08T15:54:26.249Z,52.30
2018-09-08T15:56:54.547Z,52.30
2018-09-08T15:59:22.887Z,52.70
2018-09-08T16:01:51.197Z,52.70
2018-09-08T16:04:19.531Z,53.30
2018-09-08T16:06:47.802Z,54.00
2018-09-08T16:09:16.091Z,53.70
2018-09-08T16:11:44.376Z,52.50
2018-09-08T16:14:12.853Z,51.80
2018-09-08T16:16:41.147Z,53.10
2018-09-08T16:19:09.437Z,53.40
2018-09-08T16:21:37.770Z,54.00
2018-09-08T16:24:06.116Z,54.50
2018-09-08T16:26:35.873Z,54.10
2018-09-08T16:29:04.240Z,53.70
2018-09-08T16:31:32.525Z,53.70
2018-09-08T16:34:00.922Z,53.30
2018-09-08T16:36:29.382Z,53.10
2018-09-08T16:38:57.808Z,54.20
2018-09-08T16:41:26.176Z,54.00
2018-09-08T16:43:54.484Z,53.90
2018-09-08T16:46:22.846Z,53.90
2018-09-08T16:48:51.150Z,52.60
2018-09-08T16:51:19.461Z,53.70
2018-09-08T16:53:48.671Z,54.20
2018-09-08T16:56:16.993Z,54.40
2018-09-08T16:58:45.341Z,54.30
2018-09-08T17:01:14.195Z,54.00
2018-09-08T17:03:42.529Z,53.80
2018-09-08T17:06:11.047Z,53.90
2018-09-08T17:08:40.061Z,53.60
2018-09-08T17:11:08.364Z,54.30
2018-09-08T17:13:36.784Z,54.70
2018-09-08T17:16:06.668Z,54.50
2018-09-08T17:18:34.982Z,54.50
2018-09-08T17:21:03.360Z,54.40
2018-09-08T17:23:31.669Z,54.20
2018-09-08T17:26:00.019Z,54.00
2018-09-08T17:28:28.349Z,54.00
2018-09-08T17:30:56.695Z,54.00
2018-09-08T17:33:25.108Z,54.10
2018-09-08T17:35:53.419Z,54.30
2018-09-08T17:38:21.911Z,55.00
2018-09-08T17:40:50.513Z,55.00
2018-09-08T17:43:18.832Z,54.90
2018-09-08T17:45:47.132Z,54.90
2018-09-08T17:48:15.444Z,54.90
2018-09-08T17:50:43.769Z,54.80
2018-09-08T17:53:12.069Z,55.00
2018-09-08T17:58:06.916Z,55.60
2018-09-08T18:00:35.226Z,55.30
2018-09-08T18:03:03.777Z,55.30
2018-09-08T18:05:32.091Z,55.10
2018-09-08T18:08:00.454Z,54.90
2018-09-08T18:10:28.751Z,55.40
2018-09-08T18:12:57.099Z,55.50
2018-09-08T18:15:25.383Z,55.40
2018-09-08T18:17:53.684Z,55.10
2018-09-08T18:20:21.992Z,54.90
2018-09-08T18:22:50.282Z,54.80
2018-09-08T18:25:18.589Z,54.90
2018-09-08T18:27:47.186Z,55.40
2018-09-08T18:30:15.476Z,55.50
2018-09-08T18:32:43.890Z,55.40
2018-09-08T18:35:12.166Z,55.10
2018-09-08T18:37:40.459Z,54.90
2018-09-08T18:40:08.850Z,54.80
2018-09-08T18:42:37.151Z,55.00
2018-09-08T18:45:05.536Z,56.00
2018-09-08T18:47:33.866Z,55.30
2018-09-08T18:50:02.255Z,55.10
2018-09-08T18:52:30.570Z,55.10
2018-09-08T18:55:00.056Z,55.00
2018-09-08T18:57:28.387Z,55.00
2018-09-08T18:59:56.705Z,55.60
2018-09-08T19:02:25.034Z,55.70
2018-09-08T19:04:53.389Z,55.30
2018-09-08T19:07:21.744Z,55.20
2018-09-08T19:10:05.745Z,54.90
2018-09-08T19:12:35.231Z,54.80
2018-09-08T19:15:08.965Z,55.20
2018-09-08T19:17:37.272Z,55.60
2018-09-08T19:20:11.082Z,55.20
2018-09-08T19:22:39.438Z,54.60
2018-09-08T19:25:07.877Z,54.20
2018-09-08T19:27:36.183Z,54.70
2018-09-08T19:30:04.570Z,54.60
2018-09-08T19:32:32.933Z,54.70
2018-09-08T19:35:06.993Z,54.70
2018-09-08T19:37:36.440Z,54.60
2018-09-08T19:40:09.000Z,54.50
2018-09-08T19:42:37.361Z,54.50
2018-09-08T19:45:06.836Z,54.40
2018-09-08T19:48:10.566Z,55.00
2018-09-08T19:50:38.943Z,54.90
2018-09-08T19:53:12.632Z,54.70
2018-09-08T19:55:40.951Z,54.60
2018-09-08T19:58:15.290Z,54.50
2018-09-08T20:00:43.615Z,54.40
2018-09-08T20:03:11.937Z,54.90
2018-09-08T20:05:40.271Z,55.90
2018-09-08T20:08:08.587Z,55.30
2018-09-08T20:10:36.916Z,54.90
2018-09-08T20:13:05.243Z,54.70
2018-09-08T20:15:33.600Z,54.60
2018-09-08T20:18:01.935Z,54.60
2018-09-08T20:20:30.286Z,54.60
2018-09-08T20:22:58.593Z,54.60
2018-09-08T20:25:28.008Z,54.50
2018-09-08T20:27:56.319Z,54.30
2018-09-08T20:30:24.642Z,54.10
2018-09-08T20:32:52.985Z,53.90
2018-09-08T20:35:21.299Z,54.30
2018-09-08T20:37:49.700Z,54.90
2018-09-08T20:40:18.054Z,54.90
2018-09-08T20:42:46.401Z,54.60
2018-09-08T20:45:14.741Z,54.50
2018-09-08T20:47:43.338Z,54.30
2018-09-08T20:50:11.676Z,54.20
2018-09-08T20:52:39.914Z,54.80
2018-09-08T20:55:08.253Z,56.00
2018-09-08T20:57:36.605Z,55.30
2018-09-08T21:00:05.135Z,54.90
2018-09-08T21:02:33.488Z,54.50
2018-09-08T21:05:01.787Z,54.30
2018-09-08T21:07:30.111Z,54.30
2018-09-08T21:09:58.423Z,54.30
2018-09-08T21:12:26.730Z,54.50
2018-09-08T21:14:55.064Z,54.20
2018-09-08T21:17:23.323Z,54.70
2018-09-08T21:19:51.637Z,54.00
2018-09-08T21:22:19.931Z,53.90
2018-09-08T21:24:49.061Z,54.20
2018-09-08T21:27:17.321Z,54.90
2018-09-08T21:29:45.620Z,54.70
2018-09-08T21:32:13.922Z,54.60
2018-09-08T21:34:42.273Z,54.50
2018-09-08T21:37:11.245Z,54.30
2018-09-08T21:39:40.540Z,54.00
2018-09-08T21:42:08.875Z,54.50
2018-09-08T21:44:37.211Z,54.80
2018-09-08T21:47:05.913Z,54.50
2018-09-08T21:49:33.816Z,54.00
2018-09-08T21:52:02.101Z,53.90
2018-09-08T21:54:30.402Z,54.30
2018-09-08T21:56:58.670Z,53.70
2018-09-08T21:59:26.992Z,53.90
2018-09-08T22:01:55.255Z,53.90
2018-09-08T22:04:23.543Z,53.50
2018-09-08T22:06:51.808Z,53.70
2018-09-08T22:09:20.116Z,54.50
2018-09-08T22:11:48.396Z,54.60
2018-09-08T22:14:16.686Z,54.40
2018-09-08T22:16:44.977Z,54.20
2018-09-08T22:19:13.240Z,54.00
2018-09-08T22:21:41.523Z,54.10
2018-09-08T22:24:09.922Z,54.30
2018-09-08T22:26:38.276Z,54.50
2018-09-08T22:29:07.165Z,54.40
2018-09-08T22:31:35.438Z,54.20
2018-09-08T22:34:03.740Z,54.10
2018-09-08T22:36:32.021Z,54.00
2018-09-08T22:39:00.304Z,54.10
2018-09-08T22:41:28.636Z,54.30
2018-09-08T22:43:56.908Z,54.20
2018-09-08T22:46:25.214Z,54.20
2018-09-08T22:48:53.486Z,54.30
2018-09-08T22:51:21.799Z,54.10
2018-09-08T22:53:50.066Z,54.10
2018-09-08T22:56:18.325Z,54.30
2018-09-08T22:58:46.594Z,54.70
2018-09-08T23:01:14.864Z,54.80
2018-09-08T23:03:43.144Z,54.70
2018-09-08T23:06:11.420Z,54.70
2018-09-08T23:08:39.756Z,54.60
2018-09-08T23:11:08.026Z,54.50
2018-09-08T23:13:36.288Z,54.90
2018-09-08T23:16:04.560Z,54.90
2018-09-08T23:18:32.839Z,54.60
2018-09-08T23:21:01.128Z,54.40
2018-09-08T23:23:30.627Z,54.10
2018-09-08T23:25:59.332Z,54.00
2018-09-08T23:28:27.625Z,54.10
2018-09-08T23:30:55.906Z,54.50
2018-09-08T23:33:24.164Z,54.60
2018-09-08T23:35:52.420Z,54.90
2018-09-08T23:38:20.700Z,54.60
2018-09-08T23:40:49.748Z,54.50
2018-09-08T23:43:18.039Z,54.50
2018-09-08T23:45:46.630Z,54.80
2018-09-08T23:48:14.904Z,54.80
2018-09-08T23:50:43.787Z,54.70
2018-09-08T23:53:12.076Z,54.70
2018-09-08T23:55:40.366Z,54.50
2018-09-08T23:58:08.638Z,55.20
